Comares, Spain

9:36 PM CEST on September 02, 2015 (GMT +0200)
Valle Frontilla | | Change Station
CLOSE
Current Station
Personal Weather Station
Location: Moclinejo, ANDALUSIA
Elevation: 1982 ft
Nearby Weather Stations

Elev 1982 ft 36.79 °N, 4.26 °W | Updated 4 seconds ago

Clear
Clear
70.1 °F
Feels Like 74 °F
N
5.0
Wind Variable Wind from NNW
Gusts 5.0 mph

Today
High -- | Low -- °F
--% Chance of Precip.
Yesterday
High -- | Low -- °F
Precip. -- in
7:48 AM 8:44 PM
Waning Gibbous, 78% visible
Pressure 29.89 in
Visibility -9999.0 miles
Clouds
Heat Index 74 °F
Dew Point 59 °F
Humidity 68%
Rainfall 0.00 in
Snow Depth Not available.
UV Not available.
Pollen Not available.
Air Quality Not available.
Flu Activity Not available.
METAR LEMG 021930Z VRB01KT CAVOK 26/17 Q1012 NOSIG
Pressure 29.89 in
Visibility -9999.0 miles
Clouds
Heat Index 74 °F
Dew Point 59 °F
Humidity 68%
Rainfall 0.00 in
Snow Depth Not available.
UV Not available.
Pollen Not available.
Air Quality Not available.
Flu Activity Not available.
METAR LEMG 021930Z VRB01KT CAVOK 26/17 Q1012 NOSIG

10-Day Weather Forecast

×

Almanac

Astronomy

Sep. 02, 2015 Rise Set
Actual Time
Civil Twilight
Nautical Twilight
Astronomical Twilight
Moon
Length of Visible Light
Length of Day
Tomorrow will be .
, % of the Moon is Illuminated

Today's Extremes

Country Highs Country Lows

Community

WunderPhotos

Upload Photos

1,851,799 photos uploaded!

WunderBlogs® & News

Nearby

Air Quality

  Air Quality AQ Index Pollutant
Not available.

Snow Depth

Station Depth Elevation

Earthquake Activity

City Distance Mag. Time & Date
Minimum magnitude displayed is 2.5.

Coastal Water Temperatures

Place Temperature

Stations

Nearby Weather Stations

Station Location Temp. Windchill Dew Point Humidity Wind Precip. Elev Updated Type